Airport Name : London Corbin Arpt Magee Fld

Other Name : Magee Fld

ICAO : KLOZ

IATA : LOZ

FAA : LOZ

Latitude : 37.082233

Longitude : -84.084919

Country : United States

Local Date and Time : 19 Sep 2020 02:00

 

TAF (Terminal Aerodrome Forecast)

KLOZ 190539Z 1906/2006 VRB04KT P6SM FEW250 FM191400 05006KT P6SM SKC FM200000 03005KT P6SM FEW250

 

METAR (METeorological Aerodrome Report)

KLOZ 190553Z AUTO 03006KT 10SM CLR 12/09 A3023 RMK AO2 SLP230 T01170094 10161 20117 50003

KLOZ 190453Z AUTO 02005KT 10SM CLR 12/10 A3023 RMK AO2 SLP231 T01170100 402110117

KLOZ 190353Z AUTO 02004KT 10SM CLR 12/10 A3023 RMK AO2 SLP231 T01220100

KLOZ 190253Z AUTO 01004KT 10SM CLR 13/10 A3022 RMK AO2 SLP227 T01330100 53014

To Charter a Jet Click here.